createdAt,value
2017-06-04T00:00:32.016Z,0
2017-06-04T00:01:20.346Z,0
2017-06-04T00:02:10.087Z,0
2017-06-04T00:02:58.687Z,0
2017-06-04T00:03:47.632Z,0
2017-06-04T00:04:37.271Z,0
2017-06-04T00:05:27.795Z,0
2017-06-04T00:06:17.195Z,0
2017-06-04T00:07:06.118Z,0
2017-06-04T00:07:55.784Z,0
2017-06-04T00:08:44.911Z,0
2017-06-04T00:09:35.124Z,0
2017-06-04T00:10:24.317Z,0
2017-06-04T00:11:13.683Z,0
2017-06-04T00:12:02.736Z,0
2017-06-04T00:12:51.661Z,0
2017-06-04T00:13:40.862Z,0
2017-06-04T00:14:30.126Z,0
2017-06-04T00:15:19.313Z,0
2017-06-04T00:16:07.772Z,0
2017-06-04T00:16:57.779Z,0
2017-06-04T00:17:45.665Z,0
2017-06-04T00:18:35.148Z,0
2017-06-04T00:19:23.724Z,0
2017-06-04T00:20:13.110Z,0
2017-06-04T00:21:03.464Z,0
2017-06-04T00:21:51.711Z,0
2017-06-04T00:22:42.771Z,0
2017-06-04T00:23:32.751Z,0
2017-06-04T00:24:21.579Z,0
2017-06-04T00:25:13.249Z,0
2017-06-04T00:26:03.134Z,0
2017-06-04T00:26:51.856Z,0
2017-06-04T00:27:42.381Z,0
2017-06-04T00:28:34.008Z,0
2017-06-04T00:29:24.112Z,0
2017-06-04T00:30:13.587Z,0
2017-06-04T00:31:05.427Z,0
2017-06-04T00:31:53.611Z,0
2017-06-04T00:32:41.619Z,0
2017-06-04T00:33:31.209Z,0
2017-06-04T00:34:20.273Z,0
2017-06-04T00:35:11.064Z,0
2017-06-04T00:36:02.670Z,0
2017-06-04T00:36:52.738Z,0
2017-06-04T00:37:41.681Z,0
2017-06-04T00:38:29.695Z,0
2017-06-04T00:39:18.462Z,0
2017-06-04T00:41:44.589Z,0
2017-06-04T00:42:33.647Z,0
2017-06-04T00:43:23.165Z,0
2017-06-04T00:44:17.028Z,0
2017-06-04T00:45:06.630Z,0
2017-06-04T00:45:58.170Z,0
2017-06-04T00:46:46.942Z,0
2017-06-04T00:49:34.253Z,0
2017-06-04T00:57:48.560Z,0
2017-06-04T00:58:36.678Z,0
2017-06-04T00:59:27.537Z,0
2017-06-04T01:02:32.121Z,0
2017-06-04T01:03:12.472Z,0
2017-06-04T01:03:52.857Z,0
2017-06-04T01:04:33.575Z,0
2017-06-04T01:05:14.615Z,0
2017-06-04T01:05:55.629Z,0
2017-06-04T01:06:35.976Z,0
2017-06-04T01:07:16.371Z,0
2017-06-04T01:07:56.852Z,0
2017-06-04T01:08:37.277Z,0
2017-06-04T01:09:17.662Z,0
2017-06-04T01:09:58.082Z,0
2017-06-04T01:10:38.570Z,0
2017-06-04T01:11:19.038Z,0
2017-06-04T01:11:59.379Z,0
2017-06-04T01:12:39.774Z,0
2017-06-04T01:13:20.163Z,0
2017-06-04T01:14:00.639Z,0
2017-06-04T01:14:41.359Z,0
2017-06-04T01:15:21.856Z,0
2017-06-04T01:16:02.220Z,0
2017-06-04T01:16:42.610Z,0
2017-06-04T01:17:23.041Z,0
2017-06-04T01:18:03.427Z,0
2017-06-04T01:18:43.819Z,0
2017-06-04T01:19:24.267Z,0
2017-06-04T01:20:04.706Z,0
2017-06-04T01:20:45.094Z,0
2017-06-04T01:21:25.531Z,0
2017-06-04T01:22:05.888Z,0
2017-06-04T01:22:46.282Z,0
2017-06-04T01:23:26.675Z,0
2017-06-04T01:24:07.128Z,0
2017-06-04T01:24:47.535Z,0
2017-06-04T01:25:27.922Z,0
2017-06-04T01:26:08.372Z,0
2017-06-04T01:26:48.760Z,0
2017-06-04T01:27:29.154Z,0
2017-06-04T01:28:09.612Z,0
2017-06-04T01:28:50.039Z,0
2017-06-04T01:29:30.412Z,0
2017-06-04T01:30:10.852Z,0
2017-06-04T01:30:51.249Z,0
2017-06-04T01:31:31.642Z,0
2017-06-04T01:32:12.062Z,0
2017-06-04T01:32:52.435Z,0
2017-06-04T01:33:32.870Z,0
2017-06-04T01:36:11.501Z,0
2017-06-04T01:36:55.253Z,0
2017-06-04T01:37:35.568Z,0
2017-06-04T01:38:16.015Z,0
2017-06-04T01:38:57.261Z,0
2017-06-04T01:39:37.684Z,0
2017-06-04T01:40:18.055Z,0
2017-06-04T01:40:58.606Z,0
2017-06-04T01:41:39.148Z,0
2017-06-04T01:42:19.495Z,0
2017-06-04T01:43:00.957Z,0
2017-06-04T01:43:41.365Z,0
2017-06-04T01:44:21.851Z,0
2017-06-04T01:45:03.116Z,0
2017-06-04T01:45:43.528Z,0
2017-06-04T01:46:24.816Z,0
2017-06-04T01:47:05.745Z,0
2017-06-04T01:47:48.143Z,0
2017-06-04T01:48:31.811Z,0
2017-06-04T01:49:12.781Z,0
2017-06-04T01:49:53.232Z,0
2017-06-04T01:50:34.857Z,0
2017-06-04T01:51:18.758Z,0
2017-06-04T01:52:00.725Z,0
2017-06-04T01:52:41.129Z,0
2017-06-04T01:53:21.558Z,0
2017-06-04T01:54:02.839Z,0
2017-06-04T01:54:43.217Z,0
2017-06-04T01:55:23.675Z,0
2017-06-04T01:56:04.061Z,0
2017-06-04T01:56:45.512Z,0
2017-06-04T01:57:25.835Z,0
2017-06-04T01:58:06.350Z,0
2017-06-04T01:58:46.797Z,0
2017-06-04T01:59:27.772Z,0
2017-06-04T02:00:09.064Z,0
2017-06-04T02:00:49.572Z,0
2017-06-04T02:01:29.989Z,0
2017-06-04T02:02:10.986Z,0
2017-06-04T02:02:52.320Z,0
2017-06-04T02:03:34.493Z,0
2017-06-04T02:04:14.910Z,0
2017-06-04T02:04:56.249Z,0
2017-06-04T02:05:36.728Z,0
2017-06-04T02:06:18.832Z,0
2017-06-04T02:06:59.829Z,0
2017-06-04T02:07:40.764Z,0
2017-06-04T02:08:21.959Z,0
2017-06-04T02:09:02.370Z,0
2017-06-04T02:09:43.777Z,0
2017-06-04T02:10:24.189Z,0
2017-06-04T02:11:04.625Z,0
2017-06-04T02:11:45.790Z,0
2017-06-04T02:12:27.980Z,0
2017-06-04T02:13:08.356Z,0
2017-06-04T02:13:48.917Z,0
2017-06-04T02:14:29.362Z,0
2017-06-04T02:15:09.820Z,0
2017-06-04T02:15:50.247Z,0
2017-06-04T02:16:30.736Z,0
2017-06-04T02:17:11.122Z,0
2017-06-04T02:17:51.500Z,0
2017-06-04T02:18:31.939Z,0
2017-06-04T02:19:13.306Z,0
2017-06-04T02:19:54.286Z,0
2017-06-04T02:20:34.681Z,0
2017-06-04T02:21:15.086Z,0
2017-06-04T02:21:56.206Z,0
2017-06-04T02:22:36.584Z,0
2017-06-04T02:23:17.840Z,0
2017-06-04T02:23:58.282Z,0
2017-06-04T02:24:39.494Z,0
2017-06-04T02:25:20.465Z,0
2017-06-04T02:26:02.667Z,0
2017-06-04T02:26:43.134Z,0
2017-06-04T02:27:23.521Z,0
2017-06-04T02:28:03.942Z,0
2017-06-04T02:28:44.506Z,0
2017-06-04T02:29:24.888Z,0
2017-06-04T02:30:05.923Z,0
2017-06-04T02:30:46.271Z,0
2017-06-04T02:31:26.782Z,0
2017-06-04T02:32:08.068Z,0
2017-06-04T02:32:48.461Z,0
2017-06-04T02:33:31.941Z,0
2017-06-04T02:34:12.279Z,0
2017-06-04T02:34:52.733Z,0
2017-06-04T02:35:33.109Z,0
2017-06-04T02:36:13.511Z,0
2017-06-04T02:36:55.510Z,0
2017-06-04T02:37:35.864Z,0
2017-06-04T02:38:16.479Z,0
2017-06-04T02:38:57.651Z,0
2017-06-04T02:39:38.010Z,0
2017-06-04T02:40:18.482Z,0
2017-06-04T02:40:58.825Z,0
2017-06-04T02:41:39.271Z,0
2017-06-04T02:42:23.354Z,0
2017-06-04T02:43:04.066Z,0
2017-06-04T02:43:47.109Z,0
2017-06-04T02:44:27.434Z,0
2017-06-04T02:45:08.508Z,0
2017-06-04T02:45:48.811Z,0
2017-06-04T02:46:29.260Z,0
2017-06-04T02:47:10.654Z,0
2017-06-04T02:47:51.188Z,0
2017-06-04T02:48:31.586Z,0
2017-06-04T02:49:12.552Z,0
2017-06-04T02:49:53.045Z,0
2017-06-04T02:50:34.871Z,0
2017-06-04T02:51:16.413Z,0
2017-06-04T02:51:56.805Z,0
2017-06-04T02:52:37.910Z,0
2017-06-04T02:53:20.840Z,0
2017-06-04T02:54:01.297Z,0
2017-06-04T02:54:42.560Z,0
2017-06-04T02:55:23.466Z,0
2017-06-04T02:56:03.892Z,0
2017-06-04T02:56:44.275Z,0
2017-06-04T02:57:24.678Z,0
2017-06-04T02:58:05.076Z,0
2017-06-04T02:58:47.724Z,0
2017-06-04T02:59:29.947Z,0
2017-06-04T03:00:10.391Z,0
2017-06-04T03:00:50.889Z,0
2017-06-04T03:01:31.267Z,0
2017-06-04T03:02:11.692Z,0
2017-06-04T03:02:52.137Z,0
2017-06-04T03:03:32.532Z,0
2017-06-04T03:04:12.944Z,0
2017-06-04T03:04:54.783Z,0
2017-06-04T03:07:20.647Z,0
2017-06-04T03:08:04.761Z,0
2017-06-04T03:08:45.168Z,0
2017-06-04T03:09:27.058Z,0
2017-06-04T03:10:07.458Z,0
2017-06-04T03:10:47.859Z,0
2017-06-04T03:11:28.306Z,0
2017-06-04T03:12:08.678Z,0
2017-06-04T03:12:50.453Z,0
2017-06-04T03:13:30.859Z,0
2017-06-04T03:14:11.335Z,0
2017-06-04T03:14:51.751Z,0
2017-06-04T03:15:32.236Z,0
2017-06-04T03:16:13.609Z,0
2017-06-04T03:16:54.954Z,0
2017-06-04T03:19:23.442Z,0
2017-06-04T03:20:12.228Z,0
2017-06-04T03:21:00.914Z,0
2017-06-04T03:21:49.127Z,0
2017-06-04T03:22:37.717Z,0
2017-06-04T03:23:26.706Z,0
2017-06-04T03:24:15.534Z,0
2017-06-04T03:25:03.791Z,0
2017-06-04T03:25:52.443Z,0
2017-06-04T03:26:35.258Z,0
2017-06-04T03:27:15.628Z,0
2017-06-04T03:27:56.093Z,0
2017-06-04T03:28:36.468Z,0
2017-06-04T03:29:17.777Z,0
2017-06-04T03:29:58.734Z,0
2017-06-04T03:30:39.169Z,0
2017-06-04T03:31:19.522Z,0
2017-06-04T03:31:59.903Z,0
2017-06-04T03:32:40.264Z,0
2017-06-04T03:35:17.554Z,5
2017-06-04T03:36:06.155Z,5
2017-06-04T03:36:54.824Z,5
2017-06-04T03:37:43.013Z,5
2017-06-04T03:38:31.762Z,5
2017-06-04T03:39:20.353Z,5
2017-06-04T03:40:08.964Z,0
2017-06-04T03:40:57.471Z,5
2017-06-04T03:41:46.016Z,5
2017-06-04T03:42:34.587Z,5
2017-06-04T03:43:23.704Z,5
2017-06-04T03:44:11.900Z,5
2017-06-04T03:45:00.709Z,5
2017-06-04T03:45:49.246Z,5
2017-06-04T03:46:37.728Z,10
2017-06-04T03:49:19.326Z,5
2017-06-04T03:50:07.895Z,5
2017-06-04T03:50:58.330Z,5
2017-06-04T03:51:46.916Z,5
2017-06-04T03:52:37.050Z,5
2017-06-04T03:53:27.523Z,5
2017-06-04T03:54:16.633Z,5
2017-06-04T03:55:08.092Z,5
2017-06-04T03:55:56.780Z,5
2017-06-04T03:56:45.660Z,5
2017-06-04T03:57:34.011Z,5
2017-06-04T03:58:22.301Z,5
2017-06-04T03:59:10.184Z,5
2017-06-04T04:00:00.258Z,5
2017-06-04T04:00:48.439Z,5
2017-06-04T04:01:37.323Z,5
2017-06-04T04:02:21.256Z,5
2017-06-04T04:03:06.241Z,5
2017-06-04T04:03:52.088Z,5
2017-06-04T04:04:36.173Z,5
2017-06-04T04:05:19.181Z,5
2017-06-04T04:05:59.697Z,5
2017-06-04T04:06:41.707Z,5
2017-06-04T04:07:34.339Z,5
2017-06-04T04:08:18.718Z,10
2017-06-04T04:09:04.890Z,10
2017-06-04T04:09:46.840Z,10
2017-06-04T04:10:29.019Z,10
2017-06-04T04:11:09.418Z,10
2017-06-04T04:11:51.962Z,15
2017-06-04T04:12:32.406Z,15
2017-06-04T04:13:13.730Z,15
2017-06-04T04:13:55.197Z,15
2017-06-04T04:14:35.622Z,15
2017-06-04T04:15:17.005Z,15
2017-06-04T04:16:00.222Z,15
2017-06-04T04:16:46.063Z,15
2017-06-04T04:17:32.153Z,20
2017-06-04T04:18:18.090Z,25
2017-06-04T04:19:00.480Z,20
2017-06-04T04:19:42.810Z,20
2017-06-04T04:22:19.756Z,30
2017-06-04T04:23:10.063Z,30
2017-06-04T04:25:33.453Z,25
2017-06-04T04:26:22.023Z,30
2017-06-04T04:27:10.220Z,25
2017-06-04T04:27:58.917Z,25
2017-06-04T04:28:47.433Z,30
2017-06-04T04:29:36.162Z,30
2017-06-04T04:30:24.532Z,30
2017-06-04T04:31:13.251Z,25
2017-06-04T04:32:02.267Z,25
2017-06-04T04:32:50.856Z,20
2017-06-04T04:33:38.976Z,20
2017-06-04T04:34:27.693Z,25
2017-06-04T04:35:16.482Z,20
2017-06-04T04:36:04.948Z,20
2017-06-04T04:36:53.595Z,20
2017-06-04T04:37:35.854Z,20
2017-06-04T04:38:17.792Z,20
2017-06-04T04:38:59.032Z,25
2017-06-04T04:39:39.396Z,20
2017-06-04T04:40:21.439Z,25
2017-06-04T04:41:06.491Z,20
2017-06-04T04:41:48.434Z,25
2017-06-04T04:42:29.799Z,25
2017-06-04T04:43:10.267Z,20
2017-06-04T04:43:53.418Z,20
2017-06-04T04:44:33.818Z,20
2017-06-04T04:45:15.171Z,20
2017-06-04T04:45:57.383Z,15
2017-06-04T04:46:37.765Z,20
2017-06-04T04:47:19.301Z,20
2017-06-04T04:48:00.033Z,25
2017-06-04T04:48:41.821Z,25
2017-06-04T04:49:22.799Z,25
2017-06-04T04:50:07.840Z,30
2017-06-04T04:50:48.847Z,30
2017-06-04T04:51:30.489Z,30
2017-06-04T04:52:12.002Z,25
2017-06-04T04:52:52.491Z,20
2017-06-04T04:53:34.320Z,25
2017-06-04T04:54:14.749Z,25
2017-06-04T04:54:56.812Z,25
2017-06-04T04:57:19.301Z,30
2017-06-04T04:58:09.603Z,30
2017-06-04T04:58:58.657Z,30
2017-06-04T04:59:47.405Z,20
2017-06-04T05:00:35.395Z,20
2017-06-04T05:01:24.635Z,30
2017-06-04T05:02:13.011Z,30
2017-06-04T05:03:01.599Z,40
2017-06-04T05:03:50.388Z,40
2017-06-04T05:04:38.664Z,35
2017-06-04T05:05:27.526Z,45
2017-06-04T05:06:16.215Z,45
2017-06-04T05:07:04.879Z,50
2017-06-04T05:07:53.592Z,50
2017-06-04T05:08:42.507Z,40
2017-06-04T05:09:30.732Z,40
2017-06-04T05:10:19.393Z,45
2017-06-04T05:11:08.054Z,50
2017-06-04T05:11:56.548Z,55
2017-06-04T05:12:45.256Z,50
2017-06-04T05:13:34.009Z,45
2017-06-04T05:14:22.488Z,45
2017-06-04T05:15:11.591Z,45
2017-06-04T05:16:00.375Z,50
2017-06-04T05:16:48.685Z,50
2017-06-04T05:17:37.093Z,50
2017-06-04T05:20:17.688Z,65
2017-06-04T05:21:06.568Z,80
2017-06-04T05:21:54.732Z,85
2017-06-04T05:22:43.455Z,80
2017-06-04T05:23:31.940Z,85
2017-06-04T05:24:20.721Z,80
2017-06-04T05:25:09.659Z,80
2017-06-04T05:25:57.837Z,90
2017-06-04T05:26:47.178Z,100
2017-06-04T05:27:36.338Z,90
2017-06-04T05:30:29.818Z,105
2017-06-04T05:31:18.675Z,105
2017-06-04T05:32:07.013Z,105
2017-06-04T05:32:55.540Z,100
2017-06-04T05:33:44.200Z,100
2017-06-04T05:34:32.950Z,105
2017-06-04T05:35:22.089Z,105
2017-06-04T05:36:10.520Z,120
2017-06-04T05:36:59.031Z,125
2017-06-04T05:37:47.814Z,125
2017-06-04T05:38:36.158Z,130
2017-06-04T05:39:24.486Z,130
2017-06-04T05:40:13.005Z,130
2017-06-04T05:41:01.586Z,135
2017-06-04T05:41:50.293Z,145
2017-06-04T05:42:39.307Z,150
2017-06-04T05:43:27.674Z,160
2017-06-04T05:44:16.048Z,170
2017-06-04T05:45:04.892Z,180
2017-06-04T05:45:53.786Z,195
2017-06-04T05:46:41.842Z,210
2017-06-04T05:47:30.871Z,225
2017-06-04T05:48:19.281Z,235
2017-06-04T05:49:07.932Z,245
2017-06-04T05:49:47.565Z,255
2017-06-04T05:50:28.754Z,260
2017-06-04T05:51:09.066Z,270
2017-06-04T05:51:50.412Z,275
2017-06-04T05:52:30.972Z,285
2017-06-04T05:53:11.322Z,295
2017-06-04T05:53:52.718Z,295
2017-06-04T05:54:33.125Z,300
2017-06-04T05:55:15.519Z,305
2017-06-04T05:55:55.871Z,295
2017-06-04T05:56:36.872Z,290
2017-06-04T05:57:19.335Z,295
2017-06-04T05:57:59.805Z,295
2017-06-04T05:58:42.073Z,290
2017-06-04T05:59:23.256Z,295
2017-06-04T06:00:04.527Z,295
2017-06-04T06:00:45.718Z,290
2017-06-04T06:03:29.011Z,235
2017-06-04T06:04:17.241Z,230
2017-06-04T06:05:05.974Z,230
2017-06-04T06:05:53.931Z,215
2017-06-04T06:13:43.197Z,260
2017-06-04T06:14:31.570Z,300
2017-06-04T06:15:20.116Z,320
2017-06-04T06:16:08.957Z,325
2017-06-04T06:16:58.069Z,335
2017-06-04T06:17:47.054Z,345
2017-06-04T06:18:36.045Z,320
2017-06-04T06:19:24.022Z,335
2017-06-04T06:20:12.602Z,330
2017-06-04T06:20:53.738Z,340
2017-06-04T06:21:34.177Z,325
2017-06-04T06:22:14.587Z,320
2017-06-04T06:22:55.034Z,345
2017-06-04T06:23:35.394Z,340
2017-06-04T06:24:15.760Z,370
2017-06-04T06:24:56.193Z,405
2017-06-04T06:25:37.520Z,420
2017-06-04T06:26:17.976Z,430
2017-06-04T06:26:59.032Z,430
2017-06-04T06:27:39.927Z,420
2017-06-04T06:28:20.387Z,400
2017-06-04T06:29:00.745Z,405
2017-06-04T06:29:42.172Z,405
2017-06-04T06:30:25.095Z,375
2017-06-04T06:31:05.513Z,390
2017-06-04T06:31:45.878Z,400
2017-06-04T06:32:27.988Z,375
2017-06-04T06:33:08.342Z,375
2017-06-04T06:33:49.530Z,395
2017-06-04T06:34:29.922Z,410
2017-06-04T06:35:10.324Z,405
2017-06-04T06:35:50.730Z,340
2017-06-04T06:36:31.168Z,275
2017-06-04T06:37:12.162Z,295
2017-06-04T06:37:54.447Z,325
2017-06-04T06:38:36.426Z,340
2017-06-04T06:39:16.803Z,340
2017-06-04T06:39:57.361Z,350
2017-06-04T06:40:38.563Z,365
2017-06-04T06:41:19.016Z,395
2017-06-04T06:41:59.380Z,415
2017-06-04T06:42:39.852Z,415
2017-06-04T06:43:20.229Z,410
2017-06-04T06:44:05.951Z,400
2017-06-04T06:44:46.506Z,400
2017-06-04T06:45:26.754Z,370
2017-06-04T06:46:07.748Z,375
2017-06-04T06:46:48.317Z,385
2017-06-04T06:47:30.501Z,415
2017-06-04T06:48:10.848Z,415
2017-06-04T06:48:51.301Z,400
2017-06-04T06:49:31.704Z,415
2017-06-04T06:50:12.443Z,430
2017-06-04T06:50:52.825Z,435
2017-06-04T06:51:33.739Z,445
2017-06-04T06:52:14.204Z,450
2017-06-04T06:52:54.608Z,430
2017-06-04T06:53:35.068Z,360
2017-06-04T06:54:15.450Z,365
2017-06-04T06:54:55.843Z,400
2017-06-04T06:55:36.382Z,430
2017-06-04T06:56:18.628Z,440
2017-06-04T06:56:59.094Z,405
2017-06-04T06:57:42.177Z,415
2017-06-04T06:58:22.548Z,435
2017-06-04T06:59:03.002Z,460
2017-06-04T06:59:45.052Z,460
2017-06-04T07:00:25.503Z,475
2017-06-04T07:01:05.849Z,485
2017-06-04T07:01:46.938Z,490
2017-06-04T07:02:27.301Z,510
2017-06-04T07:03:07.717Z,530
2017-06-04T07:03:48.169Z,550
2017-06-04T07:04:28.523Z,560
2017-06-04T07:05:08.974Z,570
2017-06-04T07:05:49.632Z,575
2017-06-04T07:06:29.958Z,570
2017-06-04T07:07:10.308Z,560
2017-06-04T07:07:50.731Z,545
2017-06-04T07:08:31.123Z,495
2017-06-04T07:09:11.551Z,480
2017-06-04T07:09:52.922Z,435
2017-06-04T07:10:33.415Z,355
2017-06-04T07:11:13.837Z,285
2017-06-04T07:11:54.239Z,300
2017-06-04T07:12:35.201Z,320
2017-06-04T07:13:15.653Z,305
2017-06-04T07:13:56.081Z,255
2017-06-04T07:14:36.452Z,225
2017-06-04T07:15:17.477Z,190
2017-06-04T07:15:57.834Z,185
2017-06-04T07:16:38.276Z,210
2017-06-04T07:17:18.670Z,180
2017-06-04T07:17:59.070Z,135
2017-06-04T07:18:39.491Z,125
2017-06-04T07:19:19.891Z,120
2017-06-04T07:20:00.290Z,105
2017-06-04T07:20:40.682Z,110
2017-06-04T07:21:21.103Z,100
2017-06-04T07:22:03.051Z,115
2017-06-04T07:22:43.457Z,145
2017-06-04T07:23:23.854Z,105
2017-06-04T07:24:04.247Z,105
2017-06-04T07:24:44.640Z,110
2017-06-04T07:25:25.079Z,130
2017-06-04T07:26:05.573Z,120
2017-06-04T07:26:45.971Z,105
2017-06-04T07:27:26.424Z,125
2017-06-04T07:28:06.909Z,145
2017-06-04T07:28:47.297Z,120
2017-06-04T07:29:27.647Z,155
2017-06-04T07:30:08.068Z,200
2017-06-04T07:30:48.504Z,195
2017-06-04T07:31:29.013Z,255
2017-06-04T07:32:09.399Z,315
2017-06-04T07:32:50.005Z,355
2017-06-04T07:33:30.458Z,390
2017-06-04T07:34:10.877Z,390
2017-06-04T07:34:51.269Z,335
2017-06-04T07:35:31.774Z,290
2017-06-04T07:36:12.199Z,260
2017-06-04T07:36:52.599Z,265
2017-06-04T07:37:33.029Z,280
2017-06-04T07:38:13.434Z,265
2017-06-04T07:38:53.804Z,275
2017-06-04T07:39:34.271Z,290
2017-06-04T07:40:14.618Z,305
2017-06-04T07:40:55.655Z,285
2017-06-04T07:41:36.146Z,220
2017-06-04T07:42:16.501Z,175
2017-06-04T07:42:56.972Z,165
2017-06-04T07:43:37.335Z,175
2017-06-04T07:44:17.732Z,190
2017-06-04T07:44:58.156Z,220
2017-06-04T07:45:38.563Z,260
2017-06-04T07:46:18.975Z,340
2017-06-04T07:46:59.360Z,440
2017-06-04T07:47:40.304Z,470
2017-06-04T07:48:21.484Z,420
2017-06-04T07:49:01.892Z,375
2017-06-04T07:49:42.287Z,380
2017-06-04T07:50:22.887Z,395
2017-06-04T07:51:03.260Z,350
2017-06-04T07:51:44.433Z,315
2017-06-04T07:52:24.951Z,340
2017-06-04T07:53:05.388Z,415
2017-06-04T07:53:45.791Z,470
2017-06-04T07:54:26.191Z,485
2017-06-04T07:55:06.642Z,515
2017-06-04T07:55:47.112Z,555
2017-06-04T07:56:27.527Z,550
2017-06-04T07:57:07.876Z,475
2017-06-04T07:57:48.333Z,470
2017-06-04T07:58:28.709Z,575
2017-06-04T07:59:09.179Z,670
2017-06-04T07:59:49.477Z,700
2017-06-04T08:00:29.975Z,715
2017-06-04T08:01:10.320Z,600
2017-06-04T08:01:50.764Z,645
2017-06-04T08:02:31.168Z,670
2017-06-04T08:03:11.636Z,710
2017-06-04T08:03:52.082Z,575
2017-06-04T08:04:32.494Z,555
2017-06-04T08:05:12.889Z,735
2017-06-04T08:05:53.287Z,800
2017-06-04T08:06:34.304Z,785
2017-06-04T08:07:14.737Z,730
2017-06-04T08:07:55.169Z,615
2017-06-04T08:08:35.740Z,555
2017-06-04T08:09:16.283Z,540
2017-06-04T08:13:35.445Z,390
2017-06-04T08:14:16.522Z,470
2017-06-04T08:14:57.012Z,595
2017-06-04T08:15:37.451Z,650
2017-06-04T08:16:18.105Z,640
2017-06-04T08:16:58.532Z,575
2017-06-04T08:17:38.935Z,475
2017-06-04T08:18:19.336Z,470
2017-06-04T08:18:59.802Z,555
2017-06-04T08:19:40.896Z,605
2017-06-04T08:20:21.324Z,595
2017-06-04T08:21:01.728Z,615
2017-06-04T08:23:36.180Z,630
2017-06-04T08:24:18.893Z,605
2017-06-04T08:24:59.503Z,455
2017-06-04T08:25:39.842Z,405
2017-06-04T08:26:20.331Z,485
2017-06-04T08:27:00.717Z,645
2017-06-04T08:27:41.131Z,770
2017-06-04T08:28:21.574Z,865
2017-06-04T08:29:02.118Z,950
2017-06-04T08:29:42.507Z,905
2017-06-04T08:30:22.993Z,815
2017-06-04T08:31:03.379Z,865
2017-06-04T08:31:43.882Z,870
2017-06-04T08:32:24.345Z,870
2017-06-04T08:33:04.768Z,1080
2017-06-04T08:33:45.172Z,1710
2017-06-04T08:34:25.586Z,1810
2017-06-04T08:35:06.859Z,1555
2017-06-04T08:37:41.330Z,1280
2017-06-04T08:39:55.791Z,1445
2017-06-04T08:40:36.226Z,1445
2017-06-04T08:41:16.624Z,1645
2017-06-04T08:41:57.005Z,1590
2017-06-04T08:42:37.632Z,1815
2017-06-04T08:43:18.689Z,1605
2017-06-04T08:43:59.126Z,1580
2017-06-04T08:44:39.809Z,2230
2017-06-04T08:45:20.243Z,1715
2017-06-04T08:46:02.732Z,1485
2017-06-04T08:46:43.191Z,1500
2017-06-04T08:47:23.385Z,2450
2017-06-04T08:48:03.776Z,1565
2017-06-04T08:48:44.235Z,1555
2017-06-04T08:49:26.722Z,1725
2017-06-04T08:50:07.718Z,1735
2017-06-04T08:50:48.771Z,1655
2017-06-04T08:51:29.352Z,2005
2017-06-04T08:52:09.718Z,1885
2017-06-04T08:52:51.654Z,1755
2017-06-04T08:53:32.445Z,2670
2017-06-04T08:54:13.035Z,1930
2017-06-04T08:54:53.424Z,1740
2017-06-04T08:55:33.894Z,1390
2017-06-04T08:56:15.591Z,1010
2017-06-04T08:56:55.720Z,830
2017-06-04T08:57:36.126Z,715
2017-06-04T09:00:13.352Z,1045
2017-06-04T09:01:01.711Z,1105
2017-06-04T09:01:50.103Z,1175
2017-06-04T09:02:40.522Z,1220
2017-06-04T09:03:28.639Z,1215
2017-06-04T09:04:17.102Z,1195
2017-06-04T09:05:03.019Z,1205
2017-06-04T09:05:43.863Z,1240
2017-06-04T09:06:24.996Z,1300
2017-06-04T09:07:08.977Z,1380
2017-06-04T09:09:33.731Z,1915
2017-06-04T09:10:22.725Z,2300
2017-06-04T09:11:12.616Z,2295
2017-06-04T09:18:35.283Z,1860
2017-06-04T09:19:15.684Z,1975
2017-06-04T09:19:56.098Z,2175
2017-06-04T09:20:36.531Z,2165
2017-06-04T09:21:16.968Z,4195
2017-06-04T09:21:58.228Z,2350
2017-06-04T09:26:04.618Z,2405
2017-06-04T09:26:45.684Z,2445
2017-06-04T09:27:27.935Z,2030
2017-06-04T09:28:08.314Z,2455
2017-06-04T09:28:48.722Z,2135
2017-06-04T09:29:29.319Z,1870
2017-06-04T09:30:10.815Z,1960
2017-06-04T09:30:51.284Z,1755
2017-06-04T09:31:32.939Z,1990
2017-06-04T09:32:13.805Z,2220
2017-06-04T09:32:54.780Z,2155
2017-06-04T09:33:35.984Z,1680
2017-06-04T09:34:17.407Z,2005
2017-06-04T09:34:57.877Z,1900
2017-06-04T09:35:38.307Z,1420
2017-06-04T09:36:19.074Z,1740
2017-06-04T09:37:00.743Z,2030
2017-06-04T09:37:41.175Z,1785
2017-06-04T09:38:22.229Z,2010
2017-06-04T09:39:03.744Z,1290
2017-06-04T09:39:44.808Z,1615
2017-06-04T09:40:25.204Z,1970
2017-06-04T09:41:05.647Z,3300
2017-06-04T09:41:46.075Z,2530
2017-06-04T09:42:26.529Z,2400
2017-06-04T09:43:07.837Z,3405
2017-06-04T09:43:48.650Z,2265
2017-06-04T09:44:30.645Z,1715
2017-06-04T09:45:11.743Z,1790
2017-06-04T09:45:52.863Z,1495
2017-06-04T09:46:33.283Z,1180
2017-06-04T09:49:23.126Z,650
2017-06-04T09:50:03.274Z,610
2017-06-04T09:50:43.709Z,580
2017-06-04T09:51:24.151Z,550
2017-06-04T09:52:04.541Z,520
2017-06-04T09:52:44.998Z,485
2017-06-04T09:53:25.430Z,460
2017-06-04T09:54:05.873Z,445
2017-06-04T09:54:46.321Z,425
2017-06-04T09:55:27.012Z,395
2017-06-04T09:56:07.491Z,385
2017-06-04T09:56:47.908Z,380
2017-06-04T09:57:28.318Z,385
2017-06-04T09:58:09.085Z,365
2017-06-04T09:58:51.241Z,345
2017-06-04T09:59:31.967Z,310
2017-06-04T10:00:12.410Z,275
2017-06-04T10:00:54.530Z,250
2017-06-04T10:01:35.001Z,240
2017-06-04T10:02:15.589Z,235
2017-06-04T10:02:56.009Z,230
2017-06-04T10:03:38.257Z,250
2017-06-04T10:04:18.754Z,270
2017-06-04T10:04:59.176Z,285
2017-06-04T10:05:39.777Z,340
2017-06-04T10:06:20.640Z,400
2017-06-04T10:07:02.050Z,475
2017-06-04T10:07:42.500Z,495
2017-06-04T10:08:23.080Z,520
2017-06-04T10:09:03.369Z,545
2017-06-04T10:09:43.819Z,535
2017-06-04T10:10:24.199Z,550
2017-06-04T10:11:04.697Z,605
2017-06-04T10:11:45.114Z,670
2017-06-04T10:12:25.619Z,800
2017-06-04T10:13:06.044Z,980
2017-06-04T10:13:46.498Z,1150
2017-06-04T10:14:27.686Z,1340
2017-06-04T10:15:08.876Z,1310
2017-06-04T10:15:49.298Z,1375
2017-06-04T10:16:29.846Z,1485
2017-06-04T10:17:10.315Z,1555
2017-06-04T10:17:50.759Z,1690
2017-06-04T10:18:31.186Z,1780
2017-06-04T10:19:11.629Z,1865
2017-06-04T10:19:52.048Z,2035
2017-06-04T10:20:32.472Z,2065
2017-06-04T10:21:15.614Z,1970
2017-06-04T10:21:58.975Z,1795
2017-06-04T10:22:42.460Z,1745
2017-06-04T10:23:22.863Z,2020
2017-06-04T10:24:04.192Z,1650
2017-06-04T10:24:45.547Z,1315
2017-06-04T10:25:26.025Z,1115
2017-06-04T10:26:06.436Z,955
2017-06-04T10:28:42.430Z,710
2017-06-04T10:29:33.652Z,635
2017-06-04T10:30:21.842Z,605
2017-06-04T10:31:13.695Z,630
2017-06-04T10:32:05.652Z,640
2017-06-04T10:32:54.467Z,625
2017-06-04T10:33:45.812Z,605
2017-06-04T10:40:17.573Z,925
2017-06-04T10:41:06.485Z,935
2017-06-04T10:41:55.522Z,905
2017-06-04T10:42:46.233Z,860
2017-06-04T10:43:34.621Z,825
2017-06-04T10:44:24.508Z,780
2017-06-04T10:46:03.066Z,690
2017-06-04T10:46:52.116Z,705
2017-06-04T10:47:40.978Z,765
2017-06-04T10:48:30.524Z,875
2017-06-04T10:49:18.858Z,1010
2017-06-04T10:50:07.497Z,1165
2017-06-04T10:50:55.858Z,1385
2017-06-04T10:51:47.482Z,1845
2017-06-04T10:52:34.276Z,4215
2017-06-04T10:53:22.876Z,2050
2017-06-04T10:54:11.119Z,1840
2017-06-04T10:55:01.408Z,5625
2017-06-04T10:55:50.581Z,5490
2017-06-04T10:56:39.674Z,5495
2017-06-04T10:59:50.263Z,5370
2017-06-04T11:04:46.593Z,5520
2017-06-04T11:05:39.940Z,5475
2017-06-04T11:06:34.545Z,4965
2017-06-04T11:12:32.660Z,4375
2017-06-04T11:14:01.432Z,2280
2017-06-04T11:14:49.074Z,3050
2017-06-04T11:15:38.545Z,3275
2017-06-04T11:16:30.087Z,5705
2017-06-04T11:17:21.034Z,5535
2017-06-04T11:18:15.632Z,5530
2017-06-04T11:21:12.876Z,5250
2017-06-04T11:22:02.142Z,4945
2017-06-04T11:22:49.036Z,4795
2017-06-04T11:23:40.366Z,5175
2017-06-04T11:24:36.523Z,5275
2017-06-04T11:25:25.616Z,5140
2017-06-04T11:26:14.867Z,1760
2017-06-04T11:27:03.770Z,1180
2017-06-04T11:27:52.466Z,1420
2017-06-04T11:28:41.901Z,3730
2017-06-04T11:29:31.126Z,1730
2017-06-04T11:30:21.437Z,5440
2017-06-04T11:31:10.033Z,5860
2017-06-04T11:32:02.588Z,1480
2017-06-04T11:32:51.709Z,785
2017-06-04T11:33:40.104Z,790
2017-06-04T11:36:40.574Z,1735
2017-06-04T11:37:29.361Z,1405
2017-06-04T11:38:17.964Z,3880
2017-06-04T11:39:06.618Z,4110
2017-06-04T11:39:56.596Z,1940
2017-06-04T11:40:45.403Z,3650
2017-06-04T11:41:50.573Z,5345
2017-06-04T11:42:40.014Z,5025